createdAt,value
2023-04-15T00:01:58.515Z,8.50
2023-04-15T00:04:25.794Z,13.50
2023-04-15T00:06:54.183Z,10.00
2023-04-15T00:09:21.295Z,9.20
2023-04-15T00:11:49.710Z,10.50
2023-04-15T00:14:21.546Z,9.00
2023-04-15T00:16:54.908Z,6.70
2023-04-15T00:19:21.663Z,10.70
2023-04-15T00:21:53.185Z,5.90
2023-04-15T00:24:20.033Z,7.30
2023-04-15T00:26:46.958Z,7.90
2023-04-15T00:29:19.807Z,6.30
2023-04-15T00:31:46.813Z,8.80
2023-04-15T00:34:14.474Z,6.90
2023-04-15T00:36:47.232Z,5.80
2023-04-15T00:39:14.307Z,7.20
2023-04-15T00:41:43.803Z,8.70
2023-04-15T00:44:10.830Z,6.90
2023-04-15T00:46:39.291Z,8.00
2023-04-15T00:49:12.699Z,9.80
2023-04-15T00:51:41.776Z,12.00
2023-04-15T00:54:08.555Z,9.30
2023-04-15T00:56:36.451Z,7.70
2023-04-15T00:59:05.691Z,7.50
2023-04-15T01:01:36.220Z,8.20
2023-04-15T01:04:04.081Z,8.80
2023-04-15T01:06:31.867Z,9.10
2023-04-15T01:08:59.481Z,8.80
2023-04-15T01:11:26.513Z,11.70
2023-04-15T01:13:55.475Z,8.30
2023-04-15T01:16:22.381Z,10.30
2023-04-15T01:18:49.286Z,8.50
2023-04-15T01:21:16.499Z,8.70
2023-04-15T01:23:43.312Z,9.10
2023-04-15T01:26:14.508Z,9.30
2023-04-15T01:28:42.029Z,10.60
2023-04-15T01:31:11.096Z,9.40
2023-04-15T01:33:38.440Z,12.30
2023-04-15T01:36:08.215Z,9.40
2023-04-15T01:38:36.365Z,8.40
2023-04-15T01:41:07.581Z,9.90
2023-04-15T01:43:36.600Z,10.10
2023-04-15T01:46:03.729Z,10.60
2023-04-15T01:48:32.950Z,10.60
2023-04-15T01:51:01.666Z,10.50
2023-04-15T01:53:29.652Z,11.80
2023-04-15T01:55:56.684Z,13.00
2023-04-15T01:58:24.048Z,13.80
2023-04-15T02:00:51.039Z,12.50
2023-04-15T02:03:18.552Z,12.80
2023-04-15T02:05:45.523Z,11.50
2023-04-15T02:08:12.780Z,13.30
2023-04-15T02:10:39.825Z,17.30
2023-04-15T02:13:08.173Z,13.10
2023-04-15T02:15:35.084Z,12.90
2023-04-15T02:18:09.905Z,13.50
2023-04-15T02:20:37.491Z,12.50
2023-04-15T02:23:06.772Z,15.50
2023-04-15T02:25:34.671Z,13.50
2023-04-15T02:28:02.506Z,15.70
2023-04-15T02:30:30.310Z,13.60
2023-04-15T02:32:57.636Z,17.20
2023-04-15T02:35:25.399Z,14.90
2023-04-15T02:37:52.774Z,17.60
2023-04-15T02:40:19.913Z,12.30
2023-04-15T02:42:47.187Z,13.70
2023-04-15T02:45:16.339Z,11.30
2023-04-15T02:47:46.852Z,13.60
2023-04-15T02:50:14.684Z,12.60
2023-04-15T02:52:42.327Z,15.70
2023-04-15T02:55:11.091Z,12.50
2023-04-15T02:57:40.599Z,14.80
2023-04-15T03:00:11.017Z,12.50
2023-04-15T03:02:42.524Z,14.90
2023-04-15T03:05:13.476Z,14.10
2023-04-15T03:07:44.497Z,14.60
2023-04-15T03:10:12.449Z,12.70
2023-04-15T03:12:40.397Z,13.80
2023-04-15T03:15:09.720Z,15.70
2023-04-15T03:17:41.208Z,15.40
2023-04-15T03:20:09.071Z,15.30
2023-04-15T03:22:38.883Z,14.70
2023-04-15T03:25:06.344Z,12.40
2023-04-15T03:27:33.846Z,14.10
2023-04-15T03:30:08.495Z,13.60
2023-04-15T03:32:38.562Z,15.80
2023-04-15T03:35:07.696Z,14.50
2023-04-15T03:37:35.154Z,13.20
2023-04-15T03:40:02.162Z,13.60
2023-04-15T03:42:29.364Z,12.50
2023-04-15T03:44:57.603Z,12.30
2023-04-15T03:47:24.462Z,16.10
2023-04-15T03:49:51.222Z,14.90
2023-04-15T03:52:18.423Z,12.40
2023-04-15T03:54:45.523Z,12.00
2023-04-15T03:57:12.506Z,14.90
2023-04-15T03:59:39.933Z,11.10
2023-04-15T04:02:06.796Z,13.60
2023-04-15T04:04:33.691Z,14.30
2023-04-15T04:07:01.995Z,12.60
2023-04-15T04:09:29.350Z,13.90
2023-04-15T04:11:56.152Z,12.60
2023-04-15T04:14:29.128Z,14.50
2023-04-15T04:16:56.977Z,14.00
2023-04-15T04:19:23.802Z,14.20
2023-04-15T04:21:50.991Z,16.20
2023-04-15T04:24:17.986Z,12.20
2023-04-15T04:26:44.921Z,16.40
2023-04-15T04:29:20.367Z,15.60
2023-04-15T04:31:49.875Z,14.10
2023-04-15T04:34:17.062Z,12.80
2023-04-15T04:36:43.943Z,14.80
2023-04-15T04:39:12.925Z,14.20
2023-04-15T04:41:40.550Z,15.40
2023-04-15T04:44:07.422Z,16.30
2023-04-15T04:46:35.400Z,16.10
2023-04-15T04:49:03.180Z,15.70
2023-04-15T04:51:30.595Z,14.80
2023-04-15T04:53:58.223Z,12.60
2023-04-15T04:56:25.110Z,15.60
2023-04-15T04:58:55.049Z,14.40
2023-04-15T05:01:23.232Z,14.80
2023-04-15T05:03:50.517Z,15.60
2023-04-15T05:06:21.853Z,16.60
2023-04-15T05:08:50.211Z,13.60
2023-04-15T05:11:17.363Z,12.60
2023-04-15T05:13:44.174Z,16.30
2023-04-15T05:16:16.213Z,14.30
2023-04-15T05:18:43.797Z,13.00
2023-04-15T05:21:10.961Z,16.20
2023-04-15T05:23:37.790Z,14.60
2023-04-15T05:26:07.438Z,12.30
2023-04-15T05:28:35.670Z,25.90
2023-04-15T05:31:02.638Z,15.30
2023-04-15T05:33:31.214Z,14.80
2023-04-15T05:35:58.886Z,14.80
2023-04-15T05:38:26.541Z,12.90
2023-04-15T05:40:53.318Z,14.30
2023-04-15T05:43:23.287Z,11.50
2023-04-15T05:45:55.243Z,14.30
2023-04-15T05:48:22.553Z,13.20
2023-04-15T05:50:49.387Z,11.90
2023-04-15T05:53:17.607Z,14.70
2023-04-15T05:55:44.874Z,12.10
2023-04-15T05:58:12.077Z,12.60
2023-04-15T06:00:40.987Z,13.50
2023-04-15T06:03:11.158Z,15.80
2023-04-15T06:05:38.069Z,11.20
2023-04-15T06:08:05.213Z,12.00
2023-04-15T06:10:35.917Z,11.70
2023-04-15T06:13:03.682Z,15.00
2023-04-15T06:15:31.072Z,11.00
2023-04-15T06:17:57.866Z,12.50
2023-04-15T06:20:25.023Z,11.70
2023-04-15T06:22:52.125Z,13.20
2023-04-15T06:25:19.425Z,12.70
2023-04-15T06:27:47.672Z,11.10
2023-04-15T06:30:14.444Z,11.80
2023-04-15T06:32:41.477Z,10.40
2023-04-15T06:35:09.031Z,11.30
2023-04-15T06:37:36.153Z,15.40
2023-04-15T06:40:04.690Z,13.80
2023-04-15T06:42:32.501Z,11.20
2023-04-15T06:44:59.420Z,11.50
2023-04-15T06:47:27.257Z,12.10
2023-04-15T06:49:54.304Z,11.60
2023-04-15T06:52:21.145Z,12.10
2023-04-15T06:54:48.018Z,11.30
2023-04-15T06:57:15.526Z,14.40
2023-04-15T06:59:42.891Z,12.60
2023-04-15T07:02:10.420Z,14.50
2023-04-15T07:04:37.526Z,12.20
2023-04-15T07:07:05.445Z,12.70
2023-04-15T07:09:33.962Z,10.30
2023-04-15T07:12:00.926Z,10.90
2023-04-15T07:14:28.889Z,8.70
2023-04-15T07:16:58.175Z,11.20
2023-04-15T07:19:26.072Z,10.90
2023-04-15T07:21:52.903Z,11.00
2023-04-15T07:24:20.194Z,11.90
2023-04-15T07:26:50.587Z,12.20
2023-04-15T07:29:19.036Z,14.20
2023-04-15T07:31:45.824Z,12.40
2023-04-15T07:34:14.659Z,9.80
2023-04-15T07:36:43.536Z,12.70
2023-04-15T07:39:10.436Z,11.30
2023-04-15T07:41:37.651Z,10.50
2023-04-15T07:44:04.919Z,9.30
2023-04-15T07:46:31.777Z,11.20
2023-04-15T07:49:03.757Z,13.80
2023-04-15T07:51:31.658Z,12.00
2023-04-15T07:53:58.726Z,8.00
2023-04-15T07:56:25.994Z,11.20
2023-04-15T07:58:56.129Z,10.20
2023-04-15T08:01:24.783Z,11.60
2023-04-15T08:03:52.554Z,14.00
2023-04-15T08:06:22.267Z,10.90
2023-04-15T08:08:49.045Z,12.20
2023-04-15T08:11:17.588Z,10.30
2023-04-15T08:13:46.292Z,11.70
2023-04-15T08:16:23.997Z,10.80
2023-04-15T08:18:52.146Z,10.70
2023-04-15T08:21:19.566Z,10.10
2023-04-15T08:23:48.877Z,14.30
2023-04-15T08:26:17.040Z,9.70
2023-04-15T08:28:44.904Z,11.10
2023-04-15T08:31:12.842Z,12.20
2023-04-15T08:33:40.692Z,12.10
2023-04-15T08:36:11.662Z,10.40
2023-04-15T08:38:38.567Z,10.60
2023-04-15T08:41:22.714Z,12.70
2023-04-15T08:44:01.253Z,10.10
2023-04-15T08:46:35.255Z,9.30
2023-04-15T08:49:04.217Z,8.00
2023-04-15T08:51:36.302Z,10.60
2023-04-15T08:54:03.638Z,8.40
2023-04-15T08:56:35.290Z,7.30
2023-04-15T08:59:03.168Z,9.20
2023-04-15T09:01:31.809Z,10.90
2023-04-15T09:03:59.011Z,34.10
2023-04-15T09:06:26.688Z,16.20
2023-04-15T09:08:53.840Z,45.70
2023-04-15T09:11:22.237Z,28.50
2023-04-15T09:13:49.302Z,26.60
2023-04-15T09:16:16.224Z,17.80
2023-04-15T09:18:43.018Z,14.10
2023-04-15T09:21:10.786Z,11.00
2023-04-15T09:23:39.983Z,10.90
2023-04-15T09:26:07.096Z,8.50
2023-04-15T09:28:40.847Z,9.30
2023-04-15T09:31:07.732Z,9.10
2023-04-15T09:33:35.712Z,8.10
2023-04-15T09:36:04.564Z,11.10
2023-04-15T09:38:31.900Z,8.70
2023-04-15T09:40:58.788Z,8.50
2023-04-15T09:43:39.520Z,9.50
2023-04-15T09:46:06.348Z,10.90
2023-04-15T09:48:33.448Z,10.70
2023-04-15T09:51:00.824Z,12.00
2023-04-15T09:53:29.817Z,8.10
2023-04-15T09:56:02.848Z,9.40
2023-04-15T09:58:34.534Z,12.10
2023-04-15T10:01:03.827Z,9.90
2023-04-15T10:03:36.438Z,11.80
2023-04-15T10:06:04.963Z,9.90
2023-04-15T10:08:34.194Z,10.10
2023-04-15T10:11:04.569Z,10.70
2023-04-15T10:13:35.703Z,11.20
2023-04-15T10:16:14.443Z,9.90
2023-04-15T10:18:47.859Z,11.00
2023-04-15T10:21:17.966Z,10.40
2023-04-15T10:23:45.443Z,8.90
2023-04-15T10:26:14.322Z,10.00
2023-04-15T10:28:41.581Z,10.10
2023-04-15T10:31:11.126Z,8.70
2023-04-15T10:33:38.597Z,12.90
2023-04-15T10:36:05.998Z,13.70
2023-04-15T10:38:42.675Z,10.70
2023-04-15T10:41:21.421Z,9.90
2023-04-15T10:44:02.897Z,9.70
2023-04-15T10:46:37.534Z,10.40
2023-04-15T10:49:10.590Z,8.50
2023-04-15T10:51:43.174Z,9.50
2023-04-15T10:54:14.139Z,12.60
2023-04-15T10:56:44.833Z,12.30
2023-04-15T10:59:11.895Z,11.80
2023-04-15T11:02:01.450Z,9.80
2023-04-15T11:04:52.094Z,12.40
2023-04-15T11:07:46.344Z,8.30
2023-04-15T11:10:13.287Z,9.70
2023-04-15T11:12:41.353Z,11.40
2023-04-15T11:15:27.071Z,11.00
2023-04-15T11:17:53.906Z,10.60
2023-04-15T11:20:21.542Z,12.60
2023-04-15T11:22:49.636Z,11.10
2023-04-15T11:25:27.103Z,10.70
2023-04-15T11:27:54.135Z,7.40
2023-04-15T11:30:22.506Z,14.00
2023-04-15T11:32:50.551Z,11.40
2023-04-15T11:35:17.826Z,10.30
2023-04-15T11:37:45.788Z,11.10
2023-04-15T11:40:14.679Z,10.30
2023-04-15T11:42:49.464Z,11.30
2023-04-15T11:45:17.086Z,13.10
2023-04-15T11:47:44.393Z,10.40
2023-04-15T11:50:14.435Z,8.60
2023-04-15T11:52:53.517Z,9.80
2023-04-15T11:55:20.768Z,11.90
2023-04-15T11:57:47.663Z,10.40
2023-04-15T12:00:16.291Z,14.20
2023-04-15T12:02:44.480Z,11.60
2023-04-15T12:05:12.074Z,11.40
2023-04-15T12:07:57.984Z,9.50
2023-04-15T12:10:25.434Z,9.00
2023-04-15T12:12:53.030Z,12.40
2023-04-15T12:15:23.455Z,10.30
2023-04-15T12:17:54.174Z,11.00
2023-04-15T12:20:25.440Z,11.40
2023-04-15T12:22:53.137Z,11.20
2023-04-15T12:25:20.279Z,12.00
2023-04-15T12:27:51.811Z,9.30
2023-04-15T12:30:18.599Z,12.70
2023-04-15T12:32:45.598Z,9.90
2023-04-15T12:35:13.813Z,11.20
2023-04-15T12:37:40.765Z,12.50
2023-04-15T12:40:10.373Z,12.30
2023-04-15T12:42:37.713Z,12.20
2023-04-15T12:45:05.187Z,11.60
2023-04-15T12:47:32.987Z,12.30
2023-04-15T12:49:59.747Z,11.70
2023-04-15T12:52:26.644Z,10.10
2023-04-15T12:54:53.791Z,12.40
2023-04-15T12:57:21.292Z,11.00
2023-04-15T12:59:48.070Z,10.30
2023-04-15T13:02:15.235Z,11.00
2023-04-15T13:04:42.300Z,9.80
2023-04-15T13:07:09.302Z,11.60
2023-04-15T13:09:37.412Z,11.80
2023-04-15T13:12:05.497Z,10.90
2023-04-15T13:14:34.024Z,13.40
2023-04-15T13:17:02.209Z,19.70
2023-04-15T13:19:29.225Z,11.00
2023-04-15T13:21:56.528Z,13.30
2023-04-15T13:24:23.290Z,11.50
2023-04-15T13:26:50.441Z,14.10
2023-04-15T13:29:17.447Z,11.10
2023-04-15T13:31:45.225Z,16.30
2023-04-15T13:34:12.009Z,13.90
2023-04-15T13:36:38.739Z,9.90
2023-04-15T13:39:05.870Z,12.20
2023-04-15T13:41:33.136Z,16.40
2023-04-15T13:43:59.992Z,13.80
2023-04-15T13:46:26.981Z,15.00
2023-04-15T13:48:54.200Z,15.30
2023-04-15T13:51:21.229Z,16.10
2023-04-15T13:53:48.072Z,18.10
2023-04-15T13:56:14.826Z,14.20
2023-04-15T13:58:41.815Z,10.90
2023-04-15T14:01:08.893Z,11.40
2023-04-15T14:03:36.230Z,14.30
2023-04-15T14:06:05.462Z,29.30
2023-04-15T14:08:32.775Z,44.40
2023-04-15T14:11:00.155Z,22.20
2023-04-15T14:13:26.960Z,52.30
2023-04-15T14:15:54.248Z,20.30
2023-04-15T14:18:21.097Z,21.50
2023-04-15T14:20:50.507Z,26.30
2023-04-15T14:23:17.589Z,29.00
2023-04-15T14:25:46.714Z,42.70
2023-04-15T14:28:15.466Z,28.00
2023-04-15T14:30:42.366Z,19.10
2023-04-15T14:33:09.581Z,32.60
2023-04-15T14:35:37.389Z,23.20
2023-04-15T14:38:05.647Z,18.20
2023-04-15T14:40:33.102Z,15.10
2023-04-15T14:43:00.340Z,13.00
2023-04-15T14:45:27.331Z,12.00
2023-04-15T14:47:54.274Z,22.10
2023-04-15T14:50:21.298Z,15.50
2023-04-15T14:52:48.124Z,11.60
2023-04-15T14:55:15.546Z,17.20
2023-04-15T14:57:42.474Z,19.00
2023-04-15T15:00:10.836Z,16.80
2023-04-15T15:02:40.513Z,16.20
2023-04-15T15:05:09.582Z,20.40
2023-04-15T15:07:38.836Z,17.60
2023-04-15T15:10:06.856Z,19.00
2023-04-15T15:12:34.495Z,15.30
2023-04-15T15:15:04.899Z,17.90
2023-04-15T15:17:34.548Z,38.50
2023-04-15T15:20:02.953Z,17.40
2023-04-15T15:22:30.007Z,12.60
2023-04-15T15:24:58.625Z,10.20
2023-04-15T15:27:25.398Z,10.00
2023-04-15T15:29:52.168Z,9.40
2023-04-15T15:32:19.019Z,11.50
2023-04-15T15:34:45.875Z,15.20
2023-04-15T15:37:12.733Z,12.90
2023-04-15T15:39:41.469Z,15.40
2023-04-15T15:42:08.401Z,10.50
2023-04-15T15:44:37.805Z,12.20
2023-04-15T15:47:05.518Z,8.80
2023-04-15T15:49:32.554Z,9.90
2023-04-15T15:51:59.500Z,10.70
2023-04-15T15:54:26.323Z,10.40
2023-04-15T15:56:54.274Z,9.20
2023-04-15T15:59:21.301Z,9.10
2023-04-15T16:01:48.735Z,8.30
2023-04-15T16:04:16.705Z,8.60
2023-04-15T16:06:44.399Z,8.20
2023-04-15T16:09:12.658Z,8.30
2023-04-15T16:11:39.580Z,7.40
2023-04-15T16:14:07.419Z,9.70
2023-04-15T16:16:35.411Z,8.30
2023-04-15T16:19:02.523Z,8.20
2023-04-15T16:21:30.552Z,9.20
2023-04-15T16:23:57.310Z,12.10
2023-04-15T16:26:24.139Z,10.20
2023-04-15T16:28:50.894Z,8.40
2023-04-15T16:31:18.075Z,10.50
2023-04-15T16:33:44.945Z,8.40
2023-04-15T16:36:11.889Z,8.60
2023-04-15T16:38:39.464Z,10.70
2023-04-15T16:41:06.477Z,10.70
2023-04-15T16:43:33.421Z,11.30
2023-04-15T16:46:00.960Z,11.30
2023-04-15T16:48:28.001Z,13.20
2023-04-15T16:50:55.159Z,12.70
2023-04-15T16:53:22.542Z,11.50
2023-04-15T16:55:52.525Z,11.90
2023-04-15T16:58:19.874Z,12.10
2023-04-15T17:00:46.802Z,11.10
2023-04-15T17:03:13.762Z,10.40
2023-04-15T17:05:41.733Z,9.60
2023-04-15T17:08:08.625Z,10.40
2023-04-15T17:10:35.843Z,11.60
2023-04-15T17:13:02.891Z,11.50
2023-04-15T17:15:29.730Z,23.70
2023-04-15T17:17:56.614Z,14.00
2023-04-15T17:20:23.618Z,14.30
2023-04-15T17:22:51.600Z,11.40
2023-04-15T17:25:20.212Z,11.00
2023-04-15T17:27:47.293Z,11.80
2023-04-15T17:30:14.173Z,11.30
2023-04-15T17:32:42.134Z,8.90
2023-04-15T17:35:09.628Z,11.20
2023-04-15T17:37:36.777Z,10.40
2023-04-15T17:40:07.295Z,11.10
2023-04-15T17:42:35.528Z,9.90
2023-04-15T17:45:02.396Z,11.50
2023-04-15T17:47:29.575Z,9.00
2023-04-15T17:49:57.372Z,11.90
2023-04-15T17:52:24.616Z,12.90
2023-04-15T17:54:51.555Z,10.50
2023-04-15T17:57:19.345Z,9.50
2023-04-15T17:59:47.921Z,12.70
2023-04-15T18:02:15.335Z,13.30
2023-04-15T18:04:42.775Z,9.80
2023-04-15T18:07:09.683Z,10.10
2023-04-15T18:09:38.589Z,10.20
2023-04-15T18:12:06.972Z,15.80
2023-04-15T18:14:36.479Z,10.70
2023-04-15T18:17:03.665Z,13.30
2023-04-15T18:19:31.136Z,19.40
2023-04-15T18:21:59.451Z,13.60
2023-04-15T18:24:26.534Z,15.00
2023-04-15T18:26:53.404Z,15.20
2023-04-15T18:29:20.289Z,11.20
2023-04-15T18:31:47.129Z,14.50
2023-04-15T18:34:14.167Z,14.00
2023-04-15T18:36:40.942Z,14.60
2023-04-15T18:39:08.345Z,11.80
2023-04-15T18:41:35.308Z,12.20
2023-04-15T18:44:02.095Z,11.50
2023-04-15T18:46:29.084Z,11.30
2023-04-15T18:48:55.871Z,10.90
2023-04-15T18:51:22.695Z,10.90
2023-04-15T18:53:50.946Z,10.30
2023-04-15T18:56:20.272Z,11.60
2023-04-15T18:59:27.291Z,11.00
2023-04-15T19:01:34.953Z,13.30
2023-04-15T19:04:02.736Z,12.50
2023-04-15T19:06:32.104Z,13.70
2023-04-15T19:09:00.282Z,13.10
2023-04-15T19:11:27.114Z,11.80
2023-04-15T19:13:54.073Z,11.70
2023-04-15T19:16:21.151Z,12.00
2023-04-15T19:18:47.939Z,12.80
2023-04-15T19:21:14.892Z,12.80
2023-04-15T19:23:44.896Z,12.90
2023-04-15T19:26:11.924Z,12.60
2023-04-15T19:28:39.181Z,12.30
2023-04-15T19:31:06.103Z,13.00
2023-04-15T19:33:33.158Z,13.80
2023-04-15T19:36:04.434Z,15.10
2023-04-15T19:38:32.249Z,14.90
2023-04-15T19:40:59.369Z,14.10
2023-04-15T19:43:26.675Z,14.80
2023-04-15T19:45:54.004Z,16.20
2023-04-15T19:48:22.404Z,14.70
2023-04-15T19:50:50.451Z,13.50
2023-04-15T19:53:17.218Z,16.50
2023-04-15T19:55:44.157Z,16.70
2023-04-15T19:58:11.146Z,13.60
2023-04-15T20:00:38.275Z,14.50
2023-04-15T20:03:05.434Z,14.50
2023-04-15T20:05:32.952Z,12.80
2023-04-15T20:08:00.740Z,15.60
2023-04-15T20:10:31.087Z,16.10
2023-04-15T20:12:58.029Z,14.70
2023-04-15T20:15:25.482Z,14.70
2023-04-15T20:17:52.381Z,13.50
2023-04-15T20:20:20.743Z,14.60
2023-04-15T20:22:47.941Z,18.80
2023-04-15T20:25:15.691Z,16.20
2023-04-15T20:27:42.738Z,14.30
2023-04-15T20:30:10.359Z,13.90
2023-04-15T20:32:38.098Z,13.60
2023-04-15T20:35:06.321Z,14.40
2023-04-15T20:37:33.631Z,15.50
2023-04-15T20:40:00.849Z,14.10
2023-04-15T20:42:28.514Z,15.90
2023-04-15T20:44:55.424Z,15.10
2023-04-15T20:47:22.489Z,17.00
2023-04-15T20:49:49.659Z,14.00
2023-04-15T20:52:16.447Z,15.70
2023-04-15T20:54:43.625Z,18.10
2023-04-15T20:57:10.474Z,17.30
2023-04-15T20:59:37.330Z,16.50
2023-04-15T21:02:06.181Z,16.80
2023-04-15T21:04:33.910Z,16.80
2023-04-15T21:07:00.835Z,16.90
2023-04-15T21:09:27.892Z,18.20
2023-04-15T21:12:00.962Z,20.10
2023-04-15T21:14:28.597Z,17.70
2023-04-15T21:16:58.387Z,17.50
2023-04-15T21:19:25.417Z,17.70
2023-04-15T21:21:52.265Z,19.40
2023-04-15T21:24:19.066Z,21.30
2023-04-15T21:26:45.999Z,18.80
2023-04-15T21:29:13.091Z,18.90
2023-04-15T21:31:40.737Z,20.10
2023-04-15T21:34:07.670Z,20.00
2023-04-15T21:36:34.729Z,18.90
2023-04-15T21:39:01.546Z,20.30
2023-04-15T21:41:28.345Z,21.30
2023-04-15T21:43:55.295Z,20.30
2023-04-15T21:46:25.586Z,20.20
2023-04-15T21:48:59.927Z,19.20
2023-04-15T21:51:27.164Z,22.70
2023-04-15T21:53:55.339Z,21.40
2023-04-15T21:56:23.544Z,19.70
2023-04-15T21:58:50.716Z,21.80
2023-04-15T22:01:17.560Z,24.70
2023-04-15T22:03:44.694Z,19.40
2023-04-15T22:06:13.171Z,22.30
2023-04-15T22:08:55.207Z,22.40
2023-04-15T22:11:29.735Z,21.70
2023-04-15T22:13:57.198Z,22.10
2023-04-15T22:16:25.194Z,21.60
2023-04-15T22:18:52.307Z,22.60
2023-04-15T22:21:20.142Z,21.80
2023-04-15T22:23:47.987Z,21.30
2023-04-15T22:26:15.267Z,21.20
2023-04-15T22:28:42.782Z,22.70
2023-04-15T22:31:10.228Z,25.30
2023-04-15T22:33:38.108Z,24.20
2023-04-15T22:36:04.992Z,26.20
2023-04-15T22:38:32.105Z,22.30
2023-04-15T22:40:58.923Z,23.80
2023-04-15T22:43:26.815Z,25.90
2023-04-15T22:45:54.296Z,23.90
2023-04-15T22:48:21.221Z,22.00
2023-04-15T22:50:48.814Z,27.60
2023-04-15T22:53:16.954Z,26.10
2023-04-15T22:55:45.977Z,27.00
2023-04-15T22:58:13.354Z,24.80
2023-04-15T23:00:40.482Z,23.60
2023-04-15T23:03:07.999Z,25.50
2023-04-15T23:05:35.907Z,24.90
2023-04-15T23:08:02.911Z,24.50
2023-04-15T23:10:33.265Z,25.60
2023-04-15T23:13:00.266Z,23.60
2023-04-15T23:15:27.051Z,22.40
2023-04-15T23:17:54.150Z,26.90
2023-04-15T23:20:20.944Z,27.40
2023-04-15T23:22:47.798Z,24.70
2023-04-15T23:25:14.702Z,23.60
2023-04-15T23:27:41.594Z,24.10
2023-04-15T23:30:08.662Z,25.20
2023-04-15T23:32:36.406Z,26.10
2023-04-15T23:35:03.514Z,26.50
2023-04-15T23:37:33.278Z,27.10
2023-04-15T23:40:00.063Z,23.90
2023-04-15T23:42:27.024Z,28.30
2023-04-15T23:44:53.796Z,25.40
2023-04-15T23:47:21.168Z,25.60
2023-04-15T23:49:47.927Z,27.00
2023-04-15T23:52:15.148Z,26.00
2023-04-15T23:54:41.881Z,25.60
2023-04-15T23:57:08.676Z,25.20
2023-04-15T23:59:35.768Z,24.30
